Time;durP1;ratioP1;P1;durP2;ratioP2;P2;SDS_P1;SDS_P2;PMS_P1;PMS_P2;Temp;Humidity;BMP_temperature;BMP_pressure;BME280_temperature;BME280_humidity;BME280_pressure;Samples;Min_cycle;Max_cycle;Signal;HPM_P1;HPM_P2
2022/09/09 00:01:49;;;;;;;7.20;1.73;;;;;;;22.42;59.38;99907.47;5034846;28;20948;-70
2022/09/09 00:04:36;;;;;;;7.30;1.93;;;;;;;22.42;59.79;99901.72;5051691;28;20252;-70
2022/09/09 00:07:23;;;;;;;6.70;1.60;;;;;;;22.45;59.58;99900.94;5069467;28;20461;-70
2022/09/09 00:10:06;;;;;;;2.67;1.10;;;;;;;22.46;59.16;99896.81;5065405;28;20512;-70
2022/09/09 00:12:57;;;;;;;3.80;1.40;;;;;;;22.47;59.20;99898.44;5050172;28;20479;-70
2022/09/09 00:15:49;;;;;;;4.47;1.30;;;;;;;22.50;58.89;99902.53;5071561;28;20456;-70
2022/09/09 00:18:25;;;;;;;5.17;1.20;;;;;;;22.49;59.08;99904.63;5075331;28;20478;-70
2022/09/09 00:21:17;;;;;;;4.87;1.33;;;;;;;22.50;59.34;99900.50;5068951;28;20440;-70
2022/09/09 00:23:55;;;;;;;4.57;1.30;;;;;;;22.50;59.35;99906.25;5063641;28;21015;-70
2022/09/09 00:26:30;;;;;;;5.30;1.70;;;;;;;22.51;59.05;99904.16;5069129;28;20456;-70
2022/09/09 00:29:08;;;;;;;4.03;1.30;;;;;;;22.51;59.31;99913.63;5068741;28;20566;-70
2022/09/09 00:31:34;;;;;;;2.73;1.20;;;;;;;22.52;59.20;99918.16;5068959;28;20413;-71
2022/09/09 00:34:10;;;;;;;5.83;1.10;;;;;;;22.42;59.53;99927.59;5050862;28;20417;-71
2022/09/09 00:36:36;;;;;;;7.20;1.43;;;;;;;22.37;59.85;99927.22;5052006;28;20167;-70
2022/09/09 00:39:03;;;;;;;3.23;1.10;;;;;;;22.38;59.46;99937.50;5071314;28;20452;-70
2022/09/09 00:42:11;;;;;;;3.70;1.30;;;;;;;21.82;61.43;99943.38;5089168;28;20236;-70
2022/09/09 00:44:37;;;;;;;6.00;1.57;;;;;;;22.03;60.59;99954.84;5074879;28;20425;-70
2022/09/09 00:47:32;;;;;;;4.37;1.10;;;;;;;21.97;60.85;99959.38;5071448;28;20399;-70
2022/09/09 00:50:07;;;;;;;3.90;1.37;;;;;;;22.05;60.85;99973.31;5074299;28;20483;-70
2022/09/09 00:52:52;;;;;;;4.60;1.40;;;;;;;22.09;61.08;99974.13;5089714;28;20404;-70
2022/09/09 00:55:41;;;;;;;5.70;1.13;;;;;;;22.26;60.16;99969.56;5038147;28;20414;-70
2022/09/09 00:58:08;;;;;;;3.53;1.33;;;;;;;22.27;60.23;99988.47;5088957;28;20486;-70
2022/09/09 01:00:39;;;;;;;5.00;1.50;;;;;;;22.19;60.90;99981.91;5070926;28;20942;-70
2022/09/09 01:03:04;;;;;;;4.93;1.50;;;;;;;22.30;60.01;99970.38;5066058;28;20477;-70
2022/09/09 01:05:33;;;;;;;4.10;1.50;;;;;;;22.38;60.06;99992.94;5089177;28;20465;-70
2022/09/09 01:08:02;;;;;;;8.53;1.20;;;;;;;22.38;60.48;99961.31;5071081;28;20248;-70
2022/09/09 01:10:41;;;;;;;6.50;1.53;;;;;;;22.19;61.01;99973.28;5050543;28;20482;-70
2022/09/09 01:13:12;;;;;;;6.10;2.10;;;;;;;22.22;60.97;99955.19;5035679;28;20500;-70
2022/09/09 01:15:38;;;;;;;8.37;1.20;;;;;;;22.29;60.87;99939.97;5035416;28;20402;-70
2022/09/09 01:18:09;;;;;;;7.80;1.60;;;;;;;22.31;60.84;99940.38;5034473;28;20394;-70
2022/09/09 01:20:53;;;;;;;5.40;1.33;;;;;;;22.36;61.04;99937.06;5064297;28;20575;-70
2022/09/09 01:23:31;;;;;;;3.80;1.83;;;;;;;22.39;60.90;99931.34;5067678;28;20762;-70
2022/09/09 01:26:24;;;;;;;4.87;1.33;;;;;;;22.43;60.46;99937.88;5068990;28;20420;-70
2022/09/09 01:28:52;;;;;;;3.40;1.23;;;;;;;22.44;60.95;99942.44;5071115;28;20441;-70
2022/09/09 01:31:25;;;;;;;7.40;1.50;;;;;;;22.44;61.01;99939.56;5054746;28;20423;-71
2022/09/09 01:33:50;;;;;;;12.63;1.63;;;;;;;22.46;60.72;99933.38;5054912;28;20894;-70
2022/09/09 01:37:07;;;;;;;3.80;1.20;;;;;;;22.30;61.60;99913.69;5054573;28;20415;-70
2022/09/09 01:39:33;;;;;;;3.80;1.23;;;;;;;22.08;62.14;99912.09;5006480;28;20197;-70
2022/09/09 01:41:59;;;;;;;3.40;1.10;;;;;;;22.30;61.36;99919.44;4990606;28;20411;-70
2022/09/09 01:44:24;;;;;;;12.77;1.00;;;;;;;22.36;61.36;99925.56;5029207;28;20433;-70
2022/09/09 01:46:50;;;;;;;7.20;1.23;;;;;;;22.21;62.14;99935.47;5050088;28;20183;-70
2022/09/09 01:49:15;;;;;;;4.20;1.23;;;;;;;22.29;61.92;99923.56;5050038;28;20183;-70
2022/09/09 01:51:41;;;;;;;7.13;1.47;;;;;;;22.33;61.85;99909.16;5066795;28;20179;-70
2022/09/09 01:54:06;;;;;;;5.73;1.57;;;;;;;22.11;62.52;99908.41;5052814;28;20171;-70
2022/09/09 01:56:37;;;;;;;4.40;1.17;;;;;;;22.20;62.35;99910.81;5053667;28;20530;-70
2022/09/09 01:59:24;;;;;;;4.93;1.10;;;;;;;22.30;62.21;99912.84;5053374;28;20179;-70
2022/09/09 02:02:22;;;;;;;4.83;1.30;;;;;;;22.35;62.01;99893.13;5057052;28;20405;-70
2022/09/09 02:04:53;;;;;;;3.07;1.10;;;;;;;22.41;62.08;99910.75;5041022;28;20481;-70
2022/09/09 02:07:31;;;;;;;4.70;1.23;;;;;;;22.43;61.69;99911.19;5037568;28;20866;-70
2022/09/09 02:10:13;;;;;;;3.17;1.23;;;;;;;22.45;61.58;99895.16;5068583;28;20512;-70
2022/09/09 02:12:41;;;;;;;3.07;1.00;;;;;;;22.46;61.62;99890.22;5070903;28;20424;-70
2022/09/09 02:15:11;;;;;;;4.37;1.10;;;;;;;22.46;61.58;99882.41;5036746;28;20519;-70
2022/09/09 02:17:36;;;;;;;5.67;0.90;;;;;;;22.48;61.34;99888.56;5057086;28;20457;-70
2022/09/09 02:20:10;;;;;;;5.40;1.10;;;;;;;22.47;61.44;99895.56;5057147;28;20412;-70
2022/09/09 02:22:36;;;;;;;4.43;0.90;;;;;;;22.49;61.21;99895.16;5075175;28;20159;-70
2022/09/09 02:25:02;;;;;;;3.47;1.07;;;;;;;22.47;61.52;99898.44;5057358;28;20419;-70
2022/09/09 02:27:27;;;;;;;5.87;1.13;;;;;;;22.48;61.66;99900.06;5057379;28;20436;-70
2022/09/09 02:29:53;;;;;;;5.30;1.83;;;;;;;22.47;61.70;99895.56;5055733;28;20665;-70
2022/09/09 02:32:21;;;;;;;2.70;1.10;;;;;;;22.47;61.77;99886.94;5057344;28;20822;-70
2022/09/09 02:34:49;;;;;;;5.33;1.30;;;;;;;22.46;61.56;99885.28;5057551;28;20190;-71
2022/09/09 02:37:16;;;;;;;2.97;0.90;;;;;;;22.48;61.37;99894.31;5074278;28;20397;-70
2022/09/09 02:39:41;;;;;;;2.00;1.00;;;;;;;22.49;61.50;99898.03;5056212;28;20481;-70
2022/09/09 02:42:09;;;;;;;3.53;0.90;;;;;;;22.49;61.41;99892.28;5073851;28;20420;-70
2022/09/09 02:44:34;;;;;;;4.30;0.97;;;;;;;22.48;61.51;99894.31;5091354;28;20261;-70
2022/09/09 02:47:24;;;;;;;2.67;0.90;;;;;;;22.48;61.60;99896.41;5056378;28;20431;-71
2022/09/09 02:50:02;;;;;;;5.87;1.33;;;;;;;22.35;62.02;99898.88;5091317;28;20224;-70
2022/09/09 02:52:37;;;;;;;2.73;1.00;;;;;;;22.41;61.50;99899.25;5091522;28;20393;-70
2022/09/09 02:55:10;;;;;;;3.50;1.10;;;;;;;22.41;61.71;99902.97;5070942;28;20431;-70
2022/09/09 02:57:35;;;;;;;6.03;1.47;;;;;;;22.43;61.41;99900.47;5037164;28;20401;-71
2022/09/09 03:00:01;;;;;;;3.23;0.80;;;;;;;22.43;61.26;99906.22;5019405;28;20424;-70
2022/09/09 03:02:27;;;;;;;4.43;1.00;;;;;;;22.43;61.49;99891.84;5041711;28;20666;-71
2022/09/09 03:04:52;;;;;;;5.87;1.03;;;;;;;22.33;61.87;99892.69;5052537;28;20245;-70
2022/09/09 03:07:18;;;;;;;4.63;1.50;;;;;;;22.33;61.62;99889.03;5069484;28;20202;-71
2022/09/09 03:09:44;;;;;;;4.27;0.90;;;;;;;22.37;61.55;99890.63;5052413;28;20928;-71
2022/09/09 03:12:10;;;;;;;3.90;1.07;;;;;;;22.38;61.62;99891.47;5052912;28;20405;-70
2022/09/09 03:14:37;;;;;;;3.00;1.00;;;;;;;22.38;61.69;99894.34;5053071;28;20152;-70
2022/09/09 03:17:04;;;;;;;3.30;1.20;;;;;;;22.40;61.18;99886.94;5053147;28;20412;-70
2022/09/09 03:19:29;;;;;;;6.50;1.10;;;;;;;22.39;61.74;99884.47;5070776;28;20442;-71
2022/09/09 03:21:55;;;;;;;3.77;1.10;;;;;;;22.40;61.66;99880.34;5090607;28;21183;-70
2022/09/09 03:24:22;;;;;;;6.87;1.20;;;;;;;22.36;61.49;99883.25;5073017;28;20197;-70
2022/09/09 03:26:47;;;;;;;2.50;0.77;;;;;;;22.10;61.41;99889.50;5072600;28;20272;-70
2022/09/09 03:29:12;;;;;;;3.90;1.13;;;;;;;22.19;61.58;99892.78;5055218;28;20456;-70
2022/09/09 03:31:39;;;;;;;4.13;0.90;;;;;;;22.29;61.72;99891.91;5072565;28;20176;-71
2022/09/09 03:34:05;;;;;;;4.27;0.80;;;;;;;22.29;61.55;99894.78;5056247;28;20194;-71
2022/09/09 03:36:30;;;;;;;4.43;1.00;;;;;;;22.35;61.25;99896.00;5056002;28;20455;-71
2022/09/09 03:38:56;;;;;;;2.47;1.23;;;;;;;22.31;61.34;99891.47;5051778;28;20179;-71
2022/09/09 03:41:23;;;;;;;3.30;1.00;;;;;;;22.14;61.65;99883.75;5052139;28;20181;-70
2022/09/09 03:43:50;;;;;;;1.60;0.70;;;;;;;22.01;61.83;99894.03;5069382;28;20162;-71
2022/09/09 03:46:16;;;;;;;2.57;0.90;;;;;;;22.12;61.39;99889.91;5072200;28;20429;-71
2022/09/09 03:48:41;;;;;;;2.07;0.80;;;;;;;22.14;61.49;99896.06;5072341;28;20842;-71
2022/09/09 03:51:07;;;;;;;5.20;1.00;;;;;;;22.25;61.13;99896.03;5071874;28;20586;-70
2022/09/09 03:53:33;;;;;;;4.47;1.00;;;;;;;22.30;61.11;99896.44;5035557;28;20179;-71
2022/09/09 03:55:59;;;;;;;2.70;1.20;;;;;;;22.28;60.91;99892.31;5051856;28;20156;-70
2022/09/09 03:58:26;;;;;;;4.03;1.47;;;;;;;22.23;60.76;99898.50;5052360;28;20238;-70
2022/09/09 04:01:02;;;;;;;4.33;0.90;;;;;;;22.25;60.65;99898.91;5051881;28;20445;-70
2022/09/09 04:03:28;;;;;;;8.73;1.30;;;;;;;22.26;61.21;99897.66;5035306;28;21022;-70
2022/09/09 04:05:56;;;;;;;3.43;1.13;;;;;;;22.28;60.49;99898.88;5046628;28;20424;-70
2022/09/09 04:08:22;;;;;;;3.47;0.90;;;;;;;22.28;60.73;99896.00;5067889;28;20191;-70
2022/09/09 04:10:48;;;;;;;2.10;0.77;;;;;;;22.27;60.46;99897.25;5050675;28;20967;-71
2022/09/09 04:13:16;;;;;;;1.90;0.67;;;;;;;22.29;60.52;99894.78;5068128;28;20253;-71
2022/09/09 04:15:42;;;;;;;6.70;1.10;;;;;;;22.30;60.48;99904.22;5067020;28;20455;-71
2022/09/09 04:18:07;;;;;;;5.27;0.93;;;;;;;22.28;59.99;99906.72;5069216;28;20907;-71
2022/09/09 04:20:33;;;;;;;3.00;0.70;;;;;;;22.28;60.01;99901.75;5088727;28;20405;-71
2022/09/09 04:22:58;;;;;;;6.20;1.20;;;;;;;22.29;60.08;99912.06;5071960;28;20174;-70
2022/09/09 04:25:24;;;;;;;6.53;1.10;;;;;;;22.30;59.93;99909.97;5054499;28;20190;-70
2022/09/09 04:27:56;;;;;;;2.43;0.80;;;;;;;22.29;59.81;99909.19;5070714;28;20198;-71
2022/09/09 04:30:22;;;;;;;4.23;0.90;;;;;;;22.30;59.67;99916.56;5053672;28;20158;-70
2022/09/09 04:32:48;;;;;;;4.37;1.10;;;;;;;22.30;59.52;99910.81;5054279;28;20423;-71
2022/09/09 04:35:13;;;;;;;3.57;0.80;;;;;;;22.31;59.29;99906.69;5070534;28;20244;-70
2022/09/09 04:37:39;;;;;;;2.20;0.70;;;;;;;22.31;59.79;99917.38;5069111;28;20174;-71
2022/09/09 04:40:05;;;;;;;3.03;0.90;;;;;;;22.31;60.04;99905.84;5066622;28;20183;-71
2022/09/09 04:42:37;;;;;;;2.50;0.70;;;;;;;22.31;59.95;99912.44;5068527;28;20179;-70
2022/09/09 04:45:03;;;;;;;3.57;1.07;;;;;;;22.29;59.45;99923.56;5068833;28;20463;-71
2022/09/09 04:47:28;;;;;;;3.60;1.03;;;;;;;22.29;59.77;99917.81;5051666;28;20461;-71
2022/09/09 04:49:54;;;;;;;2.77;0.87;;;;;;;22.28;59.26;99930.53;5051808;28;20168;-70
2022/09/09 04:52:20;;;;;;;2.47;0.90;;;;;;;22.27;59.29;99933.84;5067959;28;20240;-71
2022/09/09 04:54:46;;;;;;;2.63;0.80;;;;;;;22.29;59.17;99925.59;5071347;28;20174;-71
2022/09/09 04:57:12;;;;;;;2.27;0.80;;;;;;;22.28;59.31;99929.72;5071466;28;20495;-71
2022/09/09 04:59:37;;;;;;;4.97;1.10;;;;;;;22.28;59.38;99923.97;5071293;28;21150;-70
2022/09/09 05:02:03;;;;;;;3.00;1.23;;;;;;;22.27;59.66;99928.88;5054694;28;20185;-70
2022/09/09 05:04:29;;;;;;;4.03;0.83;;;;;;;22.29;59.10;99939.97;5054389;28;20242;-70
2022/09/09 05:06:55;;;;;;;3.20;0.77;;;;;;;22.27;59.29;99922.34;5070449;28;20440;-70
2022/09/09 05:09:20;;;;;;;3.33;0.80;;;;;;;22.26;59.23;99930.13;5050767;28;20202;-70
2022/09/09 05:11:46;;;;;;;2.47;0.87;;;;;;;22.26;58.96;99935.88;5054235;28;20174;-70
2022/09/09 05:14:12;;;;;;;2.97;0.70;;;;;;;22.24;59.41;99928.91;5021624;28;20194;-71
2022/09/09 05:16:37;;;;;;;4.40;1.00;;;;;;;22.27;59.01;99933.84;5050602;28;20217;-70
2022/09/09 05:19:03;;;;;;;2.33;0.67;;;;;;;22.26;59.17;99929.28;5067579;28;20175;-71
2022/09/09 05:21:30;;;;;;;4.37;1.17;;;;;;;22.26;59.20;99924.38;5051138;28;20171;-71
2022/09/09 05:23:56;;;;;;;2.03;0.97;;;;;;;22.26;59.31;99924.38;5067859;28;20173;-70
2022/09/09 05:26:21;;;;;;;2.70;0.90;;;;;;;22.27;58.84;99926.00;5034649;28;20900;-70
2022/09/09 05:28:47;;;;;;;3.33;0.83;;;;;;;22.27;58.91;99934.63;5054683;28;20235;-71
2022/09/09 05:31:13;;;;;;;3.00;1.10;;;;;;;22.28;59.42;99944.91;5074161;28;20228;-71
2022/09/09 05:33:43;;;;;;;2.60;0.97;;;;;;;22.28;59.14;99946.97;5070990;28;20213;-70
2022/09/09 05:36:15;;;;;;;4.80;1.17;;;;;;;22.26;59.02;99947.38;5054585;28;20957;-70
2022/09/09 05:38:41;;;;;;;2.70;0.80;;;;;;;22.26;59.06;99955.19;5055005;28;20511;-70
2022/09/09 05:41:06;;;;;;;3.90;0.80;;;;;;;22.27;58.75;99957.66;5038176;28;20405;-70
2022/09/09 05:43:32;;;;;;;5.50;1.67;;;;;;;22.26;58.81;99943.69;5021598;28;20214;-71
2022/09/09 05:46:07;;;;;;;6.83;1.40;;;;;;;22.25;59.36;99953.53;5054276;28;20167;-71
2022/09/09 05:48:40;;;;;;;3.80;0.90;;;;;;;22.18;59.10;99953.56;5072376;28;20194;-70
2022/09/09 05:51:09;;;;;;;6.50;1.10;;;;;;;22.22;59.19;99954.38;5047069;28;20425;-71
2022/09/09 05:53:35;;;;;;;4.37;1.23;;;;;;;21.94;60.03;99955.25;5054375;28;20421;-71
2022/09/09 05:56:17;;;;;;;5.23;1.20;;;;;;;22.22;61.30;99958.06;5077001;28;20994;-69
2022/09/09 05:58:43;;;;;;;4.77;1.30;;;;;;;22.36;62.54;99955.16;5056823;28;20174;-70
2022/09/09 06:01:19;;;;;;;5.00;2.10;;;;;;;22.56;63.43;99952.66;5073898;28;20519;-69
2022/09/09 06:03:45;;;;;;;11.97;1.77;;;;;;;22.58;62.42;99953.88;5073574;28;20833;-70
2022/09/09 06:06:14;;;;;;;6.20;2.20;;;;;;;22.49;63.42;99956.41;5058944;28;20523;-70
2022/09/09 06:08:42;;;;;;;5.27;1.80;;;;;;;22.22;62.86;99960.94;5073747;28;20971;-70
2022/09/09 06:11:09;;;;;;;9.93;1.40;;;;;;;22.30;62.92;99956.81;5053769;28;20437;-70
2022/09/09 06:13:38;;;;;;;7.37;1.30;;;;;;;22.01;62.84;99963.03;5054388;28;20408;-68
2022/09/09 06:16:04;;;;;;;8.10;1.20;;;;;;;22.04;62.65;99957.31;5039348;28;20410;-68
2022/09/09 06:18:30;;;;;;;3.07;1.00;;;;;;;22.12;63.17;99960.97;5036969;28;20449;-68
2022/09/09 06:21:04;;;;;;;3.43;1.10;;;;;;;22.18;62.18;99954.38;5052614;28;20175;-68
2022/09/09 06:23:29;;;;;;;6.77;1.40;;;;;;;22.27;62.33;99957.66;5070704;28;20183;-69
2022/09/09 06:26:12;;;;;;;8.93;1.40;;;;;;;22.26;62.06;99967.50;5072530;28;21179;-68
2022/09/09 06:28:38;;;;;;;4.73;1.30;;;;;;;22.17;62.59;99955.63;5051020;28;20231;-68
2022/09/09 06:31:08;;;;;;;5.40;1.47;;;;;;;22.22;62.44;99960.94;5058411;28;20527;-68
2022/09/09 06:33:35;;;;;;;4.47;1.10;;;;;;;22.09;62.53;99954.00;5071200;28;20190;-68
2022/09/09 06:36:02;;;;;;;6.13;1.20;;;;;;;21.92;63.15;99959.78;5074400;28;20444;-69
2022/09/09 06:38:27;;;;;;;2.70;1.07;;;;;;;21.79;63.38;99952.78;5084382;28;20425;-68
2022/09/09 06:40:57;;;;;;;10.50;1.60;;;;;;;21.85;63.57;99957.72;5051394;28;20491;-68
2022/09/09 06:43:23;;;;;;;4.20;1.47;;;;;;;21.98;62.46;99956.06;5051546;28;20170;-69
2022/09/09 06:46:21;;;;;;;4.13;1.63;;;;;;;22.05;62.23;99964.69;5070023;28;20413;-69
2022/09/09 06:48:47;;;;;;;5.70;1.73;;;;;;;22.27;62.03;99956.84;5090615;28;20241;-68
2022/09/09 06:51:14;;;;;;;7.83;1.90;;;;;;;22.49;62.71;99958.44;5063487;28;20432;-70
2022/09/09 06:53:41;;;;;;;4.50;1.60;;;;;;;22.05;62.64;99958.94;5054171;28;20190;-69
2022/09/09 06:56:09;;;;;;;5.10;1.70;;;;;;;22.13;62.88;99960.53;5035084;28;20461;-70
2022/09/09 06:58:36;;;;;;;5.57;1.43;;;;;;;22.27;62.60;99957.66;5085424;28;20440;-69
2022/09/09 07:01:05;;;;;;;5.03;1.73;;;;;;;22.22;62.39;99960.16;5071207;28;20480;-69
2022/09/09 07:03:31;;;;;;;2.90;1.17;;;;;;;21.99;62.95;99963.47;5050992;28;20598;-69
2022/09/09 07:05:56;;;;;;;6.13;1.53;;;;;;;21.98;63.32;99961.81;5072518;28;20915;-69
2022/09/09 07:08:22;;;;;;;3.73;1.13;;;;;;;22.20;62.76;99968.34;5085228;28;20716;-70
2022/09/09 07:10:47;;;;;;;3.50;1.23;;;;;;;21.82;63.64;99970.03;5072967;28;20186;-70
2022/09/09 07:13:15;;;;;;;3.83;1.20;;;;;;;21.72;63.36;99975.81;5072144;28;20911;-68
2022/09/09 07:15:41;;;;;;;8.83;1.90;;;;;;;21.54;64.22;99978.63;5061557;28;20273;-68
2022/09/09 07:18:07;;;;;;;8.73;1.23;;;;;;;21.76;63.82;99976.59;5073302;28;20891;-68
2022/09/09 07:20:32;;;;;;;6.33;1.60;;;;;;;21.63;64.24;99970.41;5066690;28;20514;-70
2022/09/09 07:22:59;;;;;;;4.13;1.23;;;;;;;21.24;65.98;99960.94;5054093;28;20183;-70
2022/09/09 07:25:27;;;;;;;8.53;1.50;;;;;;;21.42;65.29;99956.03;5056466;28;20176;-69
2022/09/09 07:27:53;;;;;;;7.33;1.97;;;;;;;21.22;66.38;99962.59;5056132;28;20463;-68
2022/09/09 07:30:19;;;;;;;4.30;1.27;;;;;;;21.02;67.47;99958.44;5052602;28;20421;-69
2022/09/09 07:32:44;;;;;;;8.00;1.33;;;;;;;20.98;67.23;99964.16;5083003;22;20231;-62
2022/09/09 07:35:10;;;;;;;6.23;1.57;;;;;;;20.69;67.46;99962.41;5087775;28;20289;-62
2022/09/09 07:37:37;;;;;;;6.17;1.43;;;;;;;20.83;67.35;99975.97;5089472;28;20178;-62
2022/09/09 07:40:03;;;;;;;7.80;1.53;;;;;;;21.18;66.54;99976.91;5069942;28;20265;-61
2022/09/09 07:42:29;;;;;;;6.23;1.90;;;;;;;20.84;67.52;99981.31;5071151;28;20416;-60
2022/09/09 07:44:54;;;;;;;5.40;1.47;;;;;;;20.92;66.82;99988.72;5085708;28;20528;-60
2022/09/09 07:47:20;;;;;;;9.73;1.97;;;;;;;21.50;65.53;99994.22;5089418;28;20183;-60
2022/09/09 07:49:46;;;;;;;8.23;1.83;;;;;;;21.53;64.44;99996.28;5090522;28;20174;-60
2022/09/09 07:52:12;;;;;;;4.87;1.70;;;;;;;21.66;64.15;99997.50;5089650;28;20175;-60
2022/09/09 07:54:37;;;;;;;7.07;2.40;;;;;;;21.29;65.70;99992.13;5088664;28;20811;-60
2022/09/09 07:57:04;;;;;;;7.30;2.53;;;;;;;21.41;64.86;99994.59;5071717;28;20179;-60
2022/09/09 07:59:30;;;;;;;5.53;2.03;;;;;;;21.11;66.19;99990.44;5071121;28;20734;-60
2022/09/09 08:01:55;;;;;;;5.20;1.60;;;;;;;21.26;65.61;99992.94;5089397;28;20401;-60
2022/09/09 08:04:21;;;;;;;9.37;2.10;;;;;;;21.23;66.14;100001.56;5073402;28;21007;-60
2022/09/09 08:06:58;;;;;;;6.43;2.17;;;;;;;21.22;66.60;99999.91;5089872;28;20661;-60
2022/09/09 08:09:26;;;;;;;4.93;2.20;;;;;;;20.98;68.03;100001.47;5091804;28;20213;-60
2022/09/09 08:11:52;;;;;;;8.70;3.00;;;;;;;21.36;66.42;99997.03;5084049;28;20435;-60
2022/09/09 08:14:17;;;;;;;8.70;2.23;;;;;;;21.65;65.17;100005.31;5071783;28;20422;-60
2022/09/09 08:16:44;;;;;;;6.60;1.77;;;;;;;21.78;64.34;100009.44;5071217;28;20167;-60
2022/09/09 08:19:10;;;;;;;5.47;2.33;;;;;;;21.85;64.24;100018.09;5071472;28;20166;-60
2022/09/09 08:21:37;;;;;;;5.73;2.30;;;;;;;21.75;64.77;100012.31;5074130;28;20409;-60
2022/09/09 08:24:03;;;;;;;9.67;1.93;;;;;;;21.84;64.52;100013.56;5071578;28;20159;-60
2022/09/09 08:26:29;;;;;;;5.80;1.57;;;;;;;21.84;64.06;100012.75;5052813;28;20424;-59
2022/09/09 08:28:56;;;;;;;6.40;2.03;;;;;;;21.90;64.39;100014.81;5070513;28;20327;-60
2022/09/09 08:31:34;;;;;;;10.07;2.03;;;;;;;21.99;63.64;100020.13;5070155;28;20471;-60
2022/09/09 08:34:00;;;;;;;8.30;2.40;;;;;;;22.01;63.78;100020.53;5070338;28;20459;-60
2022/09/09 08:36:27;;;;;;;10.53;1.93;;;;;;;22.00;64.08;100016.84;5070206;28;20916;-60
2022/09/09 08:38:56;;;;;;;5.20;1.53;;;;;;;21.92;63.82;100025.91;5080127;28;20231;-60
2022/09/09 08:41:43;;;;;;;3.33;1.80;;;;;;;21.89;64.48;100016.03;5090530;28;20903;-60
2022/09/09 08:44:30;;;;;;;8.33;1.60;;;;;;;21.91;64.11;100013.56;5090912;28;20405;-60
2022/09/09 08:47:20;;;;;;;7.37;1.70;;;;;;;21.84;65.45;100004.94;5090702;28;20408;-60
2022/09/09 08:50:07;;;;;;;8.13;2.10;;;;;;;21.93;64.33;100002.47;5090851;28;20489;-60
2022/09/09 08:52:45;;;;;;;4.67;1.70;;;;;;;21.73;65.50;100000.44;5090872;28;20483;-59
2022/09/09 08:55:45;;;;;;;6.07;1.87;;;;;;;21.83;64.63;99997.53;5070756;28;20848;-60
2022/09/09 08:58:19;;;;;;;3.53;1.40;;;;;;;21.92;64.66;100003.69;5070938;28;20408;-60
2022/09/09 09:01:08;;;;;;;7.43;1.30;;;;;;;21.95;64.20;100002.88;5070768;28;20944;-60
2022/09/09 09:03:55;;;;;;;9.83;2.03;;;;;;;22.02;63.56;100016.44;5074800;28;20407;-60
2022/09/09 09:06:38;;;;;;;5.80;1.57;;;;;;;21.95;64.04;100014.38;5074434;28;20415;-60
2022/09/09 09:09:34;;;;;;;4.80;1.40;;;;;;;21.98;64.03;100019.28;5085582;28;20466;-59
2022/09/09 09:12:01;;;;;;;6.13;1.87;;;;;;;21.99;63.72;100015.22;5094745;28;20399;-60
2022/09/09 09:14:30;;;;;;;4.07;1.60;;;;;;;22.01;63.55;100006.16;5076410;28;20803;-59
2022/09/09 09:17:15;;;;;;;4.23;1.30;;;;;;;21.98;63.36;100009.88;5093716;28;20409;-60
2022/09/09 09:19:40;;;;;;;8.30;2.33;;;;;;;21.96;64.05;100004.53;5077623;28;20877;-60
2022/09/09 09:22:22;;;;;;;6.10;1.73;;;;;;;22.02;63.68;100008.63;5074669;28;20417;-60
2022/09/09 09:25:06;;;;;;;7.03;1.73;;;;;;;22.03;63.56;100013.13;5092896;28;20714;-60
2022/09/09 09:27:33;;;;;;;8.47;1.70;;;;;;;21.89;64.17;100020.94;5093438;28;20757;-60
2022/09/09 09:30:00;;;;;;;7.83;1.73;;;;;;;21.88;64.15;100014.38;5075789;28;20752;-60
2022/09/09 09:32:26;;;;;;;7.07;1.77;;;;;;;21.93;63.96;100013.97;5076054;28;20806;-60
2022/09/09 09:34:55;;;;;;;5.10;1.90;;;;;;;21.98;63.62;100016.41;5094122;28;20420;-60
2022/09/09 09:37:33;;;;;;;5.67;1.70;;;;;;;22.02;62.63;100025.06;5058955;28;20447;-60
2022/09/09 09:40:12;;;;;;;7.27;1.50;;;;;;;21.79;64.00;100016.84;5075861;28;20933;-60
2022/09/09 09:42:38;;;;;;;6.70;1.83;;;;;;;21.71;63.92;100022.97;5093830;28;20419;-60
2022/09/09 09:45:13;;;;;;;7.70;1.77;;;;;;;21.67;64.16;100030.78;5071406;28;20444;-60
2022/09/09 09:47:40;;;;;;;7.00;1.80;;;;;;;21.81;63.33;100016.41;5072589;28;20444;-60
2022/09/09 09:50:16;;;;;;;6.40;1.80;;;;;;;21.87;63.02;100009.06;5073263;28;20428;-60
2022/09/09 09:52:42;;;;;;;5.40;1.43;;;;;;;21.74;64.06;100011.53;5083552;28;20461;-60
2022/09/09 09:55:13;;;;;;;10.00;1.57;;;;;;;21.68;63.30;100009.41;5093227;28;20820;-60
2022/09/09 09:57:38;;;;;;;5.97;1.50;;;;;;;21.76;62.39;100011.09;5075229;28;20150;-60
2022/09/09 10:00:18;;;;;;;5.33;1.50;;;;;;;21.70;62.33;100007.81;5093305;28;20431;-60
2022/09/09 10:02:45;;;;;;;4.83;1.60;;;;;;;21.76;62.52;100000.41;5093158;28;20422;-61
2022/09/09 10:05:14;;;;;;;11.50;1.40;;;;;;;21.70;62.54;100007.81;5075496;28;20531;-60
2022/09/09 10:07:40;;;;;;;7.50;1.40;;;;;;;21.87;62.15;100001.25;5093549;28;20443;-60
2022/09/09 10:10:08;;;;;;;3.63;1.20;;;;;;;21.90;61.71;100009.06;5093944;28;20454;-60
2022/09/09 10:13:00;;;;;;;4.57;1.30;;;;;;;21.98;61.09;99995.50;5058768;28;20185;-60
2022/09/09 10:16:02;;;;;;;4.77;1.57;;;;;;;21.62;62.74;100006.13;5074763;28;20470;-60
2022/09/09 10:18:47;;;;;;;5.80;1.70;;;;;;;21.79;62.06;100004.53;5044433;28;20423;-60
2022/09/09 10:21:43;;;;;;;8.17;1.47;;;;;;;21.83;62.01;100000.41;5075181;28;20462;-60
2022/09/09 10:24:22;;;;;;;5.53;1.40;;;;;;;21.90;61.49;100002.47;5090197;28;20459;-60
2022/09/09 10:27:02;;;;;;;5.33;1.70;;;;;;;21.85;61.26;100003.72;5093412;28;20488;-60
2022/09/09 10:29:43;;;;;;;6.00;1.77;;;;;;;21.90;60.87;99993.84;5093316;28;20455;-60
2022/09/09 10:32:46;;;;;;;3.97;1.10;;;;;;;21.91;61.21;99992.59;5093105;28;20430;-59
2022/09/09 10:35:18;;;;;;;4.90;1.17;;;;;;;21.92;60.80;99997.94;5093677;28;20998;-60
2022/09/09 10:37:54;;;;;;;6.83;1.43;;;;;;;21.77;62.79;99996.31;5075946;28;20404;-60
2022/09/09 10:40:32;;;;;;;5.00;1.33;;;;;;;21.87;61.78;99989.75;5092502;28;20487;-60
2022/09/09 10:43:29;;;;;;;7.67;1.27;;;;;;;21.95;61.10;99985.66;5092089;28;20991;-60
2022/09/09 10:46:28;;;;;;;10.73;1.80;;;;;;;21.83;62.05;99980.28;5057560;28;20789;-60
2022/09/09 10:49:04;;;;;;;6.33;1.23;;;;;;;21.85;61.86;99974.97;5070786;28;20922;-60
2022/09/09 10:51:44;;;;;;;7.53;2.10;;;;;;;21.80;62.24;99978.25;5071116;28;20421;-60
2022/09/09 10:54:13;;;;;;;9.53;1.70;;;;;;;21.73;62.09;99978.25;5075401;28;20507;-60
2022/09/09 10:56:39;;;;;;;8.17;1.87;;;;;;;21.72;63.39;99976.59;5092872;28;20887;-60
2022/09/09 10:59:06;;;;;;;5.60;1.57;;;;;;;21.82;63.22;99990.16;5074883;28;20906;-60
2022/09/09 11:01:44;;;;;;;6.77;1.50;;;;;;;21.67;64.46;99985.59;5092777;28;20440;-60
2022/09/09 11:04:34;;;;;;;6.53;1.10;;;;;;;21.61;63.77;99983.53;5092722;28;20439;-59
2022/09/09 11:07:03;;;;;;;6.17;1.43;;;;;;;21.61;63.83;99980.66;5060049;28;20892;-60
2022/09/09 11:09:31;;;;;;;5.33;1.50;;;;;;;21.65;63.72;99985.19;5092380;28;20479;-60
2022/09/09 11:11:57;;;;;;;4.43;1.40;;;;;;;21.71;63.79;99972.09;5074318;28;20429;-60
2022/09/09 11:14:50;;;;;;;3.93;1.37;;;;;;;21.44;64.63;99973.69;5092471;28;20400;-60
2022/09/09 11:17:18;;;;;;;5.90;1.20;;;;;;;21.71;63.67;99977.84;5065982;28;20842;-60
2022/09/09 11:19:43;;;;;;;3.60;1.47;;;;;;;21.70;63.89;99964.72;5057856;28;20499;-60
2022/09/09 11:22:24;;;;;;;6.13;0.93;;;;;;;21.74;63.13;99964.72;5080399;28;20529;-60
2022/09/09 11:25:33;;;;;;;4.87;1.50;;;;;;;21.59;63.79;99963.88;5071748;28;20177;-60
2022/09/09 11:28:35;;;;;;;3.63;1.23;;;;;;;21.76;63.28;99951.56;5025880;28;20461;-60
2022/09/09 11:31:07;;;;;;;3.10;1.20;;;;;;;21.82;62.83;99958.53;5071830;28;20484;-60
2022/09/09 11:33:51;;;;;;;3.63;1.20;;;;;;;21.75;62.50;99958.56;5053823;28;20449;-60
2022/09/09 11:36:42;;;;;;;4.27;1.10;;;;;;;21.58;62.80;99949.91;5054080;28;20416;-60
2022/09/09 11:39:43;;;;;;;3.00;1.03;;;;;;;21.76;62.54;99945.81;5086358;28;20416;-60
2022/09/09 11:42:12;;;;;;;4.50;1.20;;;;;;;21.75;61.19;99949.09;5091980;28;20417;-60
2022/09/09 11:44:37;;;;;;;12.80;1.33;;;;;;;21.78;61.78;99951.97;5091845;28;20412;-60
2022/09/09 11:47:03;;;;;;;4.90;0.90;;;;;;;21.65;60.84;99942.09;5056662;28;20788;-60
2022/09/09 11:49:41;;;;;;;10.13;1.40;;;;;;;21.77;60.61;99938.84;5073539;28;20649;-60
2022/09/09 11:52:38;;;;;;;6.67;1.10;;;;;;;21.95;60.02;99933.91;5091671;28;20260;-60
2022/09/09 11:55:19;;;;;;;8.63;1.30;;;;;;;21.95;58.50;99936.78;5073048;28;20512;-60